Time;durP1;ratioP1;P1;durP2;ratioP2;P2;SDS_P1;SDS_P2;PMS_P1;PMS_P2;Temp;Humidity;BMP_temperature;BMP_pressure;BME280_temperature;BME280_humidity;BME280_pressure;Samples;Min_cycle;Max_cycle;Signal;HPM_P1;HPM_P2
2023/04/15 00:01:17;;;;;;;3.37;3.07;;;7.70;74.20;;;;;;944065;148;27406;-75
2023/04/15 00:03:40;;;;;;;3.33;3.03;;;7.70;74.40;;;;;;943440;148;27636;-75
2023/04/15 00:06:07;;;;;;;4.30;2.83;;;7.70;74.40;;;;;;941384;149;27398;-75
2023/04/15 00:08:33;;;;;;;3.50;2.60;;;7.70;74.60;;;;;;942436;149;27420;-74
2023/04/15 00:11:01;;;;;;;3.20;2.90;;;7.70;74.40;;;;;;941617;149;27329;-75
2023/04/15 00:13:26;;;;;;;2.73;2.43;;;7.70;74.40;;;;;;942190;149;27490;-75
2023/04/15 00:15:53;;;;;;;4.07;2.70;;;7.70;74.40;;;;;;942900;148;27412;-75
2023/04/15 00:18:19;;;;;;;2.60;2.40;;;7.70;74.30;;;;;;941403;149;27397;-75
2023/04/15 00:20:46;;;;;;;3.10;2.30;;;7.70;74.40;;;;;;941173;149;27364;-74
2023/04/15 00:23:12;;;;;;;3.00;2.67;;;7.70;74.40;;;;;;940462;149;27399;-74
2023/04/15 00:25:39;;;;;;;2.67;2.27;;;7.70;74.70;;;;;;944361;148;27325;-75
2023/04/15 00:28:05;;;;;;;2.47;2.27;;;7.70;74.60;;;;;;943506;148;27725;-75
2023/04/15 00:30:32;;;;;;;2.90;2.40;;;7.70;74.00;;;;;;941525;149;27520;-74
2023/04/15 00:32:59;;;;;;;3.73;2.60;;;7.70;74.70;;;;;;940786;149;27446;-75
2023/04/15 00:35:25;;;;;;;4.20;2.80;;;7.70;74.80;;;;;;943593;148;27313;-74
2023/04/15 00:37:52;;;;;;;5.00;2.60;;;7.70;75.70;;;;;;941482;149;27314;-75
2023/04/15 00:40:18;;;;;;;4.67;2.60;;;7.70;75.10;;;;;;941509;149;27438;-75
2023/04/15 00:42:45;;;;;;;5.77;2.67;;;7.70;75.20;;;;;;942200;149;27385;-75
2023/04/15 00:45:12;;;;;;;3.57;2.20;;;7.70;75.20;;;;;;943976;148;27800;-75
2023/04/15 00:47:38;;;;;;;3.00;2.70;;;7.70;75.20;;;;;;927588;150;27430;-75
2023/04/15 00:50:05;;;;;;;2.60;2.40;;;7.60;75.20;;;;;;938724;150;27403;-75
2023/04/15 00:52:31;;;;;;;2.40;2.20;;;7.60;75.30;;;;;;943404;148;27345;-74
2023/04/15 00:54:58;;;;;;;2.47;2.27;;;7.60;75.30;;;;;;944371;148;27364;-74
2023/04/15 00:57:25;;;;;;;2.70;2.50;;;7.60;75.40;;;;;;941256;149;27342;-75
2023/04/15 00:59:51;;;;;;;3.43;2.83;;;7.50;75.30;;;;;;941821;149;27386;-75
2023/04/15 01:02:18;;;;;;;3.03;2.60;;;7.50;75.40;;;;;;941601;149;27385;-74
2023/04/15 01:04:44;;;;;;;2.80;2.60;;;7.50;75.40;;;;;;941442;149;27462;-75
2023/04/15 01:07:11;;;;;;;3.33;2.83;;;7.40;75.60;;;;;;942701;148;28074;-75
2023/04/15 01:09:37;;;;;;;3.20;2.90;;;7.40;75.70;;;;;;941803;149;27431;-74
2023/04/15 01:12:04;;;;;;;2.50;2.30;;;7.40;75.90;;;;;;941079;149;27517;-75
2023/04/15 01:14:31;;;;;;;2.47;2.27;;;7.30;76.00;;;;;;941996;149;27309;-75
2023/04/15 01:16:57;;;;;;;2.40;2.20;;;7.30;76.10;;;;;;943414;148;27364;-75
2023/04/15 01:19:24;;;;;;;2.30;2.10;;;7.30;76.20;;;;;;938345;148;27432;-75
2023/04/15 01:21:51;;;;;;;6.33;3.70;;;7.30;76.40;;;;;;937345;148;27380;-74
2023/04/15 01:24:17;;;;;;;3.33;3.13;;;7.30;76.50;;;;;;942616;147;27405;-75
2023/04/15 01:26:44;;;;;;;3.90;2.57;;;7.30;76.70;;;;;;935038;149;27364;-75
2023/04/15 01:29:10;;;;;;;4.60;2.70;;;7.20;76.80;;;;;;926063;150;28203;-75
2023/04/15 01:31:37;;;;;;;2.60;2.40;;;7.20;77.00;;;;;;943633;148;27261;-75
2023/04/15 01:34:03;;;;;;;3.73;2.30;;;7.20;77.30;;;;;;927124;150;27491;-75
2023/04/15 01:36:30;;;;;;;3.33;3.03;;;7.30;77.40;;;;;;925827;150;27452;-74
2023/04/15 01:38:56;;;;;;;3.73;3.00;;;7.30;77.60;;;;;;938830;148;27362;-75
2023/04/15 01:41:24;;;;;;;3.10;2.80;;;7.30;77.60;;;;;;936562;148;27404;-74
2023/04/15 01:43:50;;;;;;;2.90;2.50;;;7.30;77.70;;;;;;936368;148;27330;-75
2023/04/15 01:46:16;;;;;;;3.30;3.00;;;7.30;77.80;;;;;;925180;150;27334;-75
2023/04/15 01:48:43;;;;;;;3.57;2.70;;;7.40;77.90;;;;;;933872;149;27466;-75
2023/04/15 01:51:10;;;;;;;3.10;2.80;;;7.40;77.80;;;;;;939304;150;27361;-75
2023/04/15 01:53:36;;;;;;;3.83;2.70;;;7.40;77.80;;;;;;938274;148;27373;-74
2023/04/15 01:56:03;;;;;;;3.03;2.53;;;7.40;77.80;;;;;;936881;148;27380;-75
2023/04/15 01:58:30;;;;;;;3.07;2.77;;;7.40;77.80;;;;;;937758;148;27997;-75
2023/04/15 02:00:56;;;;;;;3.13;2.83;;;7.40;77.80;;;;;;933218;149;27362;-75
2023/04/15 02:03:22;;;;;;;4.47;2.63;;;7.40;77.80;;;;;;931115;149;27420;-75
2023/04/15 02:05:49;;;;;;;3.40;3.10;;;7.40;77.80;;;;;;937792;148;27322;-75
2023/04/15 02:08:16;;;;;;;3.00;2.80;;;7.40;77.80;;;;;;918812;150;27358;-75
2023/04/15 02:10:42;;;;;;;2.73;2.50;;;7.40;77.80;;;;;;937357;147;27348;-74
2023/04/15 02:13:09;;;;;;;3.63;2.80;;;7.40;77.90;;;;;;927021;150;27349;-74
2023/04/15 02:15:35;;;;;;;4.50;2.90;;;7.40;77.90;;;;;;929815;149;27310;-74
2023/04/15 02:18:02;;;;;;;2.90;2.70;;;7.40;77.90;;;;;;929729;149;27392;-75
2023/04/15 02:20:29;;;;;;;4.40;3.00;;;7.40;77.90;;;;;;934862;149;27318;-75
2023/04/15 02:22:55;;;;;;;4.20;3.30;;;7.40;77.90;;;;;;939901;150;27374;-74
2023/04/15 02:25:22;;;;;;;3.70;3.23;;;7.40;78.10;;;;;;939084;150;27461;-75
2023/04/15 02:27:48;;;;;;;5.23;3.47;;;7.30;78.10;;;;;;940343;150;27298;-75
2023/04/15 02:30:15;;;;;;;3.60;3.30;;;7.30;78.20;;;;;;944245;149;27434;-74
2023/04/15 02:32:43;;;;;;;4.17;2.70;;;7.30;78.30;;;;;;935738;149;27833;-75
2023/04/15 02:35:08;;;;;;;3.40;3.10;;;7.30;78.40;;;;;;935457;149;27454;-75
2023/04/15 02:37:42;;;;;;;2.53;2.33;;;7.30;78.40;;;;;;934184;149;27416;-75
2023/04/15 02:40:12;;;;;;;2.53;2.33;;;7.20;78.40;;;;;;935108;149;27365;-75
2023/04/15 02:42:39;;;;;;;2.47;2.27;;;7.20;78.40;;;;;;939459;150;27380;-75
2023/04/15 02:45:06;;;;;;;3.23;2.73;;;7.20;78.50;;;;;;940084;150;27337;-75
2023/04/15 02:47:32;;;;;;;2.77;2.57;;;7.20;78.60;;;;;;939775;150;27346;-75
2023/04/15 02:50:00;;;;;;;4.67;2.90;;;7.10;78.50;;;;;;939749;150;27346;-75
2023/04/15 02:52:25;;;;;;;3.33;2.80;;;7.10;78.60;;;;;;939781;150;27385;-75
2023/04/15 02:54:56;;;;;;;4.50;2.80;;;7.10;78.90;;;;;;933976;149;27734;-75
2023/04/15 02:57:18;;;;;;;3.50;3.20;;;7.00;78.90;;;;;;937111;148;27327;-75
2023/04/15 02:59:45;;;;;;;4.13;3.40;;;7.00;79.00;;;;;;914811;150;27297;-75
2023/04/15 03:02:11;;;;;;;4.73;2.93;;;7.00;79.10;;;;;;936658;149;27416;-75
2023/04/15 03:04:38;;;;;;;3.17;2.87;;;6.90;79.20;;;;;;935818;149;27450;-74
2023/04/15 03:07:05;;;;;;;3.60;2.73;;;6.90;80.20;;;;;;915170;149;27937;-75
2023/04/15 03:09:31;;;;;;;2.60;2.40;;;6.90;79.40;;;;;;915639;150;27415;-75
2023/04/15 03:11:58;;;;;;;3.13;2.83;;;6.90;79.50;;;;;;934627;149;27347;-75
2023/04/15 03:14:24;;;;;;;3.13;2.60;;;6.90;79.60;;;;;;939731;150;27333;-75
2023/04/15 03:16:51;;;;;;;5.27;3.13;;;6.80;79.80;;;;;;930490;149;27370;-75
2023/04/15 03:19:17;;;;;;;3.20;2.90;;;6.80;79.80;;;;;;932002;149;27389;-75
2023/04/15 03:21:44;;;;;;;4.30;3.00;;;6.80;80.00;;;;;;933746;148;27423;-75
2023/04/15 03:24:11;;;;;;;3.53;3.20;;;6.80;80.10;;;;;;927852;150;27436;-74
2023/04/15 03:26:37;;;;;;;3.20;3.00;;;6.80;80.20;;;;;;923867;150;27358;-75
2023/04/15 03:29:04;;;;;;;3.53;3.33;;;6.80;80.30;;;;;;941841;149;27404;-75
2023/04/15 03:31:30;;;;;;;3.10;2.80;;;6.80;80.40;;;;;;941835;149;27846;-75
2023/04/15 03:33:57;;;;;;;3.00;2.80;;;6.80;80.50;;;;;;943460;148;27872;-75
2023/04/15 03:36:24;;;;;;;3.37;3.07;;;6.80;80.60;;;;;;944084;148;27302;-74
2023/04/15 03:38:50;;;;;;;3.33;2.87;;;6.80;80.70;;;;;;944144;148;27437;-75
2023/04/15 03:41:17;;;;;;;3.13;2.83;;;6.80;80.90;;;;;;939518;149;27406;-75
2023/04/15 03:43:43;;;;;;;3.23;2.93;;;6.80;80.90;;;;;;941382;149;27302;-75
2023/04/15 03:46:10;;;;;;;3.10;2.83;;;6.90;81.10;;;;;;944051;148;27298;-75
2023/04/15 03:48:36;;;;;;;3.13;2.83;;;6.90;81.20;;;;;;943633;148;27353;-75
2023/04/15 03:51:03;;;;;;;3.30;3.00;;;6.90;82.10;;;;;;942101;149;27381;-74
2023/04/15 03:53:30;;;;;;;3.30;2.87;;;6.90;81.80;;;;;;941636;149;27338;-75
2023/04/15 03:55:56;;;;;;;3.50;3.20;;;6.90;81.50;;;;;;941600;149;28203;-75
2023/04/15 03:58:23;;;;;;;3.23;2.93;;;6.90;81.50;;;;;;941082;149;27384;-74
2023/04/15 04:00:50;;;;;;;3.40;3.10;;;6.90;81.50;;;;;;944005;148;27426;-75
2023/04/15 04:03:16;;;;;;;3.53;3.23;;;7.00;81.50;;;;;;944035;148;27359;-75
2023/04/15 04:05:43;;;;;;;3.50;3.20;;;7.00;81.70;;;;;;943286;148;27336;-75
2023/04/15 04:08:12;;;;;;;2.97;2.77;;;7.00;81.50;;;;;;943768;148;27764;-75
2023/04/15 04:10:36;;;;;;;2.90;2.70;;;7.00;81.50;;;;;;943849;148;27320;-74
2023/04/15 04:13:02;;;;;;;2.90;2.70;;;7.00;81.60;;;;;;926283;151;27457;-75
2023/04/15 04:15:29;;;;;;;2.97;2.60;;;7.00;81.70;;;;;;939920;151;27297;-75
2023/04/15 04:17:56;;;;;;;3.23;2.73;;;7.00;81.60;;;;;;943753;148;27422;-75
2023/04/15 04:20:22;;;;;;;3.13;2.83;;;7.00;81.60;;;;;;943911;148;27868;-75
2023/04/15 04:22:49;;;;;;;4.20;2.57;;;7.00;81.70;;;;;;946898;148;27385;-75
2023/04/15 04:25:15;;;;;;;3.97;3.20;;;7.00;81.70;;;;;;932889;152;27369;-75
2023/04/15 04:27:42;;;;;;;3.67;3.23;;;7.00;81.60;;;;;;943738;149;27313;-75
2023/04/15 04:30:08;;;;;;;4.60;3.07;;;7.00;81.60;;;;;;920934;153;27377;-75
2023/04/15 04:32:35;;;;;;;3.70;3.40;;;7.00;81.50;;;;;;928934;153;27294;-75
2023/04/15 04:35:02;;;;;;;3.17;2.80;;;7.00;81.70;;;;;;937737;151;27434;-74
2023/04/15 04:37:28;;;;;;;3.30;3.00;;;7.00;81.60;;;;;;929227;153;28689;-75
2023/04/15 04:39:55;;;;;;;3.23;3.00;;;7.00;81.70;;;;;;929360;153;27338;-75
2023/04/15 04:42:21;;;;;;;3.83;3.50;;;7.00;81.90;;;;;;928406;153;27395;-75
2023/04/15 04:44:48;;;;;;;3.90;3.50;;;7.00;82.00;;;;;;928440;153;27374;-75
2023/04/15 04:47:15;;;;;;;3.37;2.93;;;6.90;82.00;;;;;;937054;152;27349;-75
2023/04/15 04:49:41;;;;;;;4.17;3.20;;;6.90;82.10;;;;;;937559;150;27402;-74
2023/04/15 04:52:08;;;;;;;4.07;3.40;;;6.90;82.20;;;;;;941738;151;27391;-75
2023/04/15 04:54:34;;;;;;;3.57;3.27;;;7.00;82.30;;;;;;924953;151;27839;-75
2023/04/15 04:57:01;;;;;;;4.07;3.23;;;6.90;82.50;;;;;;924625;151;27428;-74
2023/04/15 04:59:27;;;;;;;3.50;3.30;;;7.00;82.60;;;;;;922097;152;27453;-76
2023/04/15 05:01:54;;;;;;;6.17;3.40;;;7.00;82.80;;;;;;936091;149;27306;-76
2023/04/15 05:04:21;;;;;;;4.30;3.00;;;7.00;83.10;;;;;;937583;151;27367;-75
2023/04/15 05:06:47;;;;;;;3.10;2.90;;;7.00;83.20;;;;;;941239;152;28038;-76
2023/04/15 05:09:14;;;;;;;3.60;3.30;;;7.00;83.40;;;;;;941473;151;27477;-78
2023/04/15 05:11:40;;;;;;;3.83;3.53;;;7.10;83.50;;;;;;932743;153;27416;-79
2023/04/15 05:14:07;;;;;;;4.53;3.43;;;7.10;83.50;;;;;;937020;149;27453;-79
2023/04/15 05:16:34;;;;;;;3.73;3.43;;;7.10;83.50;;;;;;929889;152;27414;-78
2023/04/15 05:19:00;;;;;;;4.40;4.00;;;7.10;83.60;;;;;;928988;153;27454;-79
2023/04/15 05:21:27;;;;;;;4.33;3.93;;;7.20;84.50;;;;;;929656;151;27368;-78
2023/04/15 05:23:53;;;;;;;3.80;3.50;;;7.20;84.00;;;;;;947871;151;27909;-79
2023/04/15 05:26:20;;;;;;;4.23;3.83;;;7.30;84.20;;;;;;943344;148;27390;-79
2023/04/15 05:28:46;;;;;;;3.90;3.50;;;7.30;84.30;;;;;;941997;149;27361;-79
2023/04/15 05:31:13;;;;;;;4.03;3.73;;;7.30;84.60;;;;;;941106;149;27396;-79
2023/04/15 05:33:40;;;;;;;4.47;4.07;;;7.40;84.80;;;;;;944508;148;27397;-79
2023/04/15 05:36:06;;;;;;;3.47;3.27;;;7.50;85.10;;;;;;943748;148;27410;-78
2023/04/15 05:38:33;;;;;;;4.73;4.23;;;7.60;85.30;;;;;;941345;149;27340;-79
2023/04/15 05:40:59;;;;;;;4.20;3.80;;;7.60;85.40;;;;;;940594;149;27382;-79
2023/04/15 05:43:26;;;;;;;4.63;4.23;;;7.70;85.70;;;;;;928012;150;27812;-79
2023/04/15 05:45:53;;;;;;;4.30;3.90;;;7.80;86.00;;;;;;942995;148;27390;-78
2023/04/15 05:48:19;;;;;;;4.70;4.17;;;7.90;86.10;;;;;;927900;150;27865;-78
2023/04/15 05:50:46;;;;;;;4.67;4.27;;;8.00;86.20;;;;;;943013;148;27286;-79
2023/04/15 05:53:12;;;;;;;5.20;4.60;;;8.10;86.30;;;;;;932624;149;27370;-78
2023/04/15 05:55:39;;;;;;;4.73;4.33;;;8.20;86.40;;;;;;941054;149;27409;-78
2023/04/15 05:58:05;;;;;;;4.63;4.20;;;8.30;86.40;;;;;;940975;149;27394;-78
2023/04/15 06:00:32;;;;;;;5.30;3.97;;;8.40;86.60;;;;;;941014;149;27302;-79
2023/04/15 06:02:59;;;;;;;4.90;4.27;;;8.50;86.70;;;;;;943079;148;27361;-78
2023/04/15 06:05:26;;;;;;;4.50;4.13;;;8.70;86.70;;;;;;944134;148;27313;-79
2023/04/15 06:07:52;;;;;;;5.07;4.30;;;8.80;86.90;;;;;;943340;148;27406;-80
2023/04/15 06:10:18;;;;;;;6.77;4.23;;;8.90;86.70;;;;;;948189;147;27339;-78
2023/04/15 06:12:45;;;;;;;5.07;4.17;;;9.10;86.80;;;;;;941963;149;27410;-79
2023/04/15 06:15:12;;;;;;;5.43;4.30;;;9.20;87.00;;;;;;940589;149;27385;-78
2023/04/15 06:17:38;;;;;;;4.83;4.33;;;9.40;87.00;;;;;;940859;149;27310;-79
2023/04/15 06:20:05;;;;;;;5.20;3.73;;;9.50;87.10;;;;;;940648;149;27916;-80
2023/04/15 06:22:31;;;;;;;4.67;4.27;;;9.70;87.20;;;;;;946489;147;27355;-79
2023/04/15 06:24:58;;;;;;;5.27;4.10;;;9.80;87.10;;;;;;948373;149;27349;-80
2023/04/15 06:27:24;;;;;;;4.10;3.70;;;10.00;87.00;;;;;;942874;148;27857;-80
2023/04/15 06:29:51;;;;;;;5.00;4.50;;;10.10;86.50;;;;;;944536;148;27321;-80
2023/04/15 06:32:18;;;;;;;4.10;3.80;;;10.30;86.30;;;;;;941333;149;27314;-80
2023/04/15 06:34:44;;;;;;;4.17;3.77;;;10.40;86.10;;;;;;944453;148;27270;-80
2023/04/15 06:37:14;;;;;;;6.10;4.17;;;10.60;85.90;;;;;;943550;148;27452;-80
2023/04/15 06:39:38;;;;;;;5.73;4.00;;;10.70;85.60;;;;;;940818;149;27342;-80
2023/04/15 06:42:04;;;;;;;4.90;4.40;;;10.80;85.50;;;;;;942547;148;27391;-80
2023/04/15 06:44:31;;;;;;;5.27;4.63;;;10.90;85.00;;;;;;944280;148;27873;-79
2023/04/15 06:46:57;;;;;;;5.73;4.47;;;11.00;84.70;;;;;;944071;148;27430;-80
2023/04/15 06:49:24;;;;;;;4.97;4.57;;;11.20;84.40;;;;;;941036;149;27379;-80
2023/04/15 06:51:51;;;;;;;5.57;4.30;;;11.30;84.10;;;;;;943698;148;27313;-80
2023/04/15 06:54:17;;;;;;;4.53;4.10;;;11.40;83.60;;;;;;940522;149;27305;-80
2023/04/15 06:56:44;;;;;;;4.50;4.10;;;11.50;83.30;;;;;;943534;148;27386;-80
2023/04/15 06:59:10;;;;;;;4.57;4.10;;;11.60;83.30;;;;;;943686;148;27344;-80
2023/04/15 07:01:37;;;;;;;4.97;4.40;;;11.70;83.20;;;;;;941679;149;27298;-79
2023/04/15 07:04:04;;;;;;;5.10;4.60;;;11.90;83.30;;;;;;941742;149;27666;-78
2023/04/15 07:06:31;;;;;;;4.50;4.10;;;12.00;83.10;;;;;;941893;149;27338;-79
2023/04/15 07:08:56;;;;;;;4.67;3.63;;;12.20;82.90;;;;;;942879;148;27377;-75
2023/04/15 07:11:23;;;;;;;4.43;3.93;;;12.40;82.60;;;;;;941126;149;27369;-75
2023/04/15 07:13:50;;;;;;;4.10;3.70;;;12.60;82.40;;;;;;943735;148;27340;-75
2023/04/15 07:16:17;;;;;;;3.97;3.53;;;12.80;82.00;;;;;;942292;149;27333;-75
2023/04/15 07:18:43;;;;;;;6.00;3.80;;;12.90;81.50;;;;;;942761;149;27415;-75
2023/04/15 07:21:10;;;;;;;4.73;3.83;;;13.10;80.90;;;;;;944107;148;27365;-75
2023/04/15 07:23:36;;;;;;;4.03;3.73;;;13.20;80.40;;;;;;935145;149;27422;-75
2023/04/15 07:26:03;;;;;;;4.93;4.30;;;13.40;80.00;;;;;;941890;151;27321;-75
2023/04/15 07:28:29;;;;;;;6.15;4.12;;;13.50;79.50;;;;;;915828;153;27443;-75
2023/04/15 07:30:59;;;;;;;4.30;3.90;;;13.70;79.10;;;;;;924862;154;27350;-75
2023/04/15 07:33:25;;;;;;;4.10;3.80;;;13.80;78.50;;;;;;942438;149;27445;-75
2023/04/15 07:35:52;;;;;;;5.97;3.98;;;14.00;78.00;;;;;;922748;154;27871;-75
2023/04/15 07:38:18;;;;;;;4.22;3.67;;;14.10;77.10;;;;;;926777;153;27851;-75
2023/04/15 07:40:45;;;;;;;4.70;3.60;;;14.10;76.30;;;;;;931702;151;27354;-75
2023/04/15 07:43:12;;;;;;;4.55;4.15;;;14.20;75.80;;;;;;928530;153;27373;-75
2023/04/15 07:45:38;;;;;;;4.70;4.25;;;14.20;75.20;;;;;;928486;153;27360;-75
2023/04/15 07:48:05;;;;;;;6.12;4.45;;;14.20;74.60;;;;;;944186;151;27418;-75
2023/04/15 07:50:32;;;;;;;3.90;3.60;;;14.20;74.20;;;;;;944710;151;27320;-75
2023/04/15 07:52:58;;;;;;;5.75;4.37;;;14.10;74.10;;;;;;944008;148;27312;-75
2023/04/15 07:55:25;;;;;;;8.75;4.45;;;14.10;73.90;;;;;;923891;151;27387;-75
2023/04/15 07:57:51;;;;;;;6.37;4.27;;;14.00;73.80;;;;;;924312;154;28007;-75
2023/04/15 08:00:18;;;;;;;4.73;3.93;;;14.00;74.00;;;;;;942546;151;27346;-75
2023/04/15 08:02:47;;;;;;;5.22;4.05;;;13.90;74.10;;;;;;925870;151;27411;-75
2023/04/15 08:05:11;;;;;;;7.75;4.87;;;14.00;74.40;;;;;;939487;149;27792;-75
2023/04/15 08:07:38;;;;;;;9.43;4.97;;;14.00;74.70;;;;;;939103;151;27421;-75
2023/04/15 08:10:04;;;;;;;4.40;4.08;;;14.00;74.90;;;;;;925439;154;27371;-75
2023/04/15 08:12:31;;;;;;;5.80;4.80;;;14.10;75.20;;;;;;931070;151;27245;-75
2023/04/15 08:14:57;;;;;;;6.25;4.50;;;14.30;75.50;;;;;;941153;151;27465;-75
2023/04/15 08:17:24;;;;;;;4.72;4.33;;;14.40;75.50;;;;;;941333;149;27380;-75
2023/04/15 08:19:51;;;;;;;5.58;4.45;;;14.60;75.40;;;;;;927749;151;27358;-75
2023/04/15 08:22:17;;;;;;;5.67;4.20;;;14.80;75.30;;;;;;927865;153;27384;-75
2023/04/15 08:24:44;;;;;;;5.70;4.90;;;15.10;75.90;;;;;;933561;149;27719;-75
2023/04/15 08:27:10;;;;;;;9.48;4.53;;;15.40;76.50;;;;;;935935;148;27317;-75
2023/04/15 08:29:37;;;;;;;4.80;4.03;;;15.80;76.50;;;;;;935021;150;27382;-75
2023/04/15 08:32:04;;;;;;;5.03;4.35;;;16.20;76.20;;;;;;936215;150;27387;-75
2023/04/15 08:34:30;;;;;;;5.15;4.53;;;16.70;76.00;;;;;;933433;150;27328;-75
2023/04/15 08:36:57;;;;;;;5.85;4.10;;;17.20;75.30;;;;;;944004;151;27308;-75
2023/04/15 08:39:23;;;;;;;4.10;3.80;;;17.70;74.70;;;;;;942710;150;27338;-75
2023/04/15 08:41:50;;;;;;;3.80;3.50;;;18.20;74.00;;;;;;936350;151;27340;-75
2023/04/15 08:44:16;;;;;;;5.10;4.60;;;18.70;72.70;;;;;;932847;151;27445;-75
2023/04/15 08:46:43;;;;;;;4.10;3.70;;;19.10;70.30;;;;;;937228;151;27311;-75
2023/04/15 08:49:10;;;;;;;4.12;3.60;;;19.30;67.90;;;;;;937684;150;27301;-75
2023/04/15 08:51:36;;;;;;;4.65;3.75;;;19.40;66.40;;;;;;925234;150;27375;-75
2023/04/15 08:54:03;;;;;;;3.95;3.55;;;19.40;65.30;;;;;;937182;150;27353;-75
2023/04/15 08:56:30;;;;;;;4.78;4.33;;;19.40;64.90;;;;;;926414;150;27411;-75
2023/04/15 08:58:56;;;;;;;4.03;3.72;;;19.40;64.50;;;;;;937285;150;27310;-75
2023/04/15 09:01:23;;;;;;;4.50;4.10;;;19.40;64.20;;;;;;944004;148;27678;-75
2023/04/15 09:03:49;;;;;;;3.35;3.08;;;19.40;64.00;;;;;;931217;149;28017;-75
2023/04/15 09:06:16;;;;;;;3.33;3.02;;;19.30;64.40;;;;;;940271;150;27290;-75
2023/04/15 09:08:42;;;;;;;3.40;3.10;;;19.40;63.20;;;;;;940073;150;27323;-75
2023/04/15 09:11:09;;;;;;;3.10;2.90;;;19.30;62.40;;;;;;943560;148;27441;-75
2023/04/15 09:13:36;;;;;;;3.20;2.90;;;19.30;61.70;;;;;;932805;149;27375;-75
2023/04/15 09:16:03;;;;;;;3.10;2.87;;;19.20;60.60;;;;;;941781;149;27454;-75
2023/04/15 09:18:29;;;;;;;4.58;3.22;;;19.00;60.20;;;;;;942676;149;27293;-75
2023/04/15 09:20:56;;;;;;;3.25;2.92;;;18.90;60.00;;;;;;919810;151;27427;-75
2023/04/15 09:23:22;;;;;;;3.25;2.95;;;18.70;59.90;;;;;;934891;151;27377;-75
2023/04/15 09:25:49;;;;;;;3.37;3.17;;;18.40;59.50;;;;;;948222;147;27448;-75
2023/04/15 09:28:15;;;;;;;2.90;2.70;;;18.20;59.90;;;;;;944056;148;27266;-75
2023/04/15 09:30:45;;;;;;;2.87;2.40;;;18.00;59.60;;;;;;941842;148;27412;-75
2023/04/15 09:33:09;;;;;;;3.10;2.80;;;17.80;60.10;;;;;;947123;147;27318;-75
2023/04/15 09:35:35;;;;;;;3.33;2.75;;;17.70;60.30;;;;;;944404;149;27372;-75
2023/04/15 09:38:04;;;;;;;3.00;2.75;;;17.50;60.50;;;;;;943270;149;27464;-75
2023/04/15 09:40:37;;;;;;;3.15;2.95;;;17.40;60.50;;;;;;943103;149;27317;-75
2023/04/15 09:43:04;;;;;;;3.25;2.95;;;17.20;60.70;;;;;;944014;148;27246;-75
2023/04/15 09:45:30;;;;;;;3.05;2.85;;;17.10;61.80;;;;;;944453;148;27348;-74
2023/04/15 09:47:57;;;;;;;3.17;2.87;;;17.00;61.10;;;;;;939649;150;27361;-74
2023/04/15 09:50:23;;;;;;;2.85;2.52;;;16.80;61.40;;;;;;938571;150;27319;-75
2023/04/15 09:52:50;;;;;;;3.20;3.00;;;16.70;61.60;;;;;;937979;150;27330;-75
2023/04/15 09:55:16;;;;;;;3.45;3.12;;;16.60;61.60;;;;;;944067;148;27311;-75
2023/04/15 09:57:48;;;;;;;3.15;2.85;;;16.60;61.80;;;;;;944198;148;27345;-74
2023/04/15 10:00:12;;;;;;;3.62;3.33;;;16.50;61.90;;;;;;941304;148;27327;-75
2023/04/15 10:02:41;;;;;;;2.95;2.65;;;16.40;62.00;;;;;;945580;149;27305;-75
2023/04/15 10:05:11;;;;;;;3.00;2.70;;;16.30;62.10;;;;;;943111;149;27378;-74
2023/04/15 10:07:37;;;;;;;3.17;2.87;;;16.30;62.30;;;;;;943582;148;27332;-74
2023/04/15 10:10:04;;;;;;;2.98;2.77;;;16.20;62.40;;;;;;944409;148;27318;-74
2023/04/15 10:12:30;;;;;;;3.17;2.87;;;16.20;62.70;;;;;;945678;149;27308;-75
2023/04/15 10:15:00;;;;;;;3.10;2.80;;;16.20;62.90;;;;;;946059;149;27345;-75
2023/04/15 10:17:26;;;;;;;3.65;2.70;;;16.20;63.10;;;;;;926100;150;27343;-75
2023/04/15 10:19:53;;;;;;;3.17;2.95;;;16.20;63.30;;;;;;938035;150;27676;-75
2023/04/15 10:22:19;;;;;;;3.12;2.83;;;16.20;63.30;;;;;;937574;150;27337;-75
2023/04/15 10:24:46;;;;;;;3.20;2.90;;;16.30;63.50;;;;;;937865;150;27439;-75
2023/04/15 10:27:12;;;;;;;3.62;3.33;;;16.30;63.30;;;;;;935138;149;27443;-75
2023/04/15 10:29:39;;;;;;;6.08;3.42;;;16.40;63.20;;;;;;933036;149;27320;-75
2023/04/15 10:32:06;;;;;;;3.37;3.08;;;16.40;62.80;;;;;;931899;149;27872;-75
2023/04/15 10:34:32;;;;;;;2.83;2.62;;;16.40;62.80;;;;;;931284;149;27329;-75
2023/04/15 10:37:00;;;;;;;2.77;2.58;;;16.30;62.80;;;;;;932239;149;27354;-75
2023/04/15 10:39:40;;;;;;;2.52;2.33;;;16.30;62.80;;;;;;931032;149;27361;-75
2023/04/15 10:42:12;;;;;;;2.15;1.95;;;16.30;62.90;;;;;;931376;149;27358;-75
2023/04/15 10:44:39;;;;;;;2.70;2.22;;;16.30;63.10;;;;;;941897;148;27414;-74
2023/04/15 10:47:11;;;;;;;2.87;2.22;;;16.30;63.10;;;;;;943414;148;27353;-74
2023/04/15 10:49:46;;;;;;;2.33;2.22;;;16.40;63.10;;;;;;943911;148;27309;-75
2023/04/15 10:52:13;;;;;;;2.27;2.08;;;16.40;63.10;;;;;;921494;151;27749;-75
2023/04/15 10:54:40;;;;;;;2.05;1.95;;;16.40;63.00;;;;;;920432;151;27395;-75
2023/04/15 10:57:06;;;;;;;2.08;1.95;;;16.50;63.40;;;;;;956480;147;27363;-75
2023/04/15 10:59:33;;;;;;;2.20;2.00;;;16.50;63.50;;;;;;945879;150;27268;-75
2023/04/15 11:02:02;;;;;;;2.42;2.00;;;16.60;63.90;;;;;;944725;148;27291;-75
2023/04/15 11:04:56;;;;;;;1.80;1.67;;;16.60;64.10;;;;;;920798;155;27477;-74
2023/04/15 11:07:45;;;;;;;1.62;1.52;;;16.60;64.10;;;;;;937426;152;27359;-75
2023/04/15 11:10:13;;;;;;;1.70;1.50;;;16.60;64.10;;;;;;941595;149;27374;-75
2023/04/15 11:12:40;;;;;;;1.50;1.40;;;16.60;64.10;;;;;;947685;147;27424;-75
2023/04/15 11:15:25;;;;;;;1.55;1.45;;;16.50;64.20;;;;;;957745;147;27300;-76
2023/04/15 11:17:52;;;;;;;1.37;1.27;;;16.40;64.10;;;;;;949636;150;27284;-75
2023/04/15 11:20:18;;;;;;;1.35;1.30;;;16.30;64.20;;;;;;944482;148;27360;-75
2023/04/15 11:22:51;;;;;;;1.30;1.20;;;16.20;64.20;;;;;;928503;149;27365;-75
2023/04/15 11:25:26;;;;;;;1.20;1.20;;;16.10;64.10;;;;;;941913;149;27474;-75
2023/04/15 11:27:56;;;;;;;1.35;1.30;;;16.00;64.00;;;;;;939472;149;27468;-75
2023/04/15 11:30:22;;;;;;;1.45;1.35;;;15.80;64.20;;;;;;926939;149;27376;-75
2023/04/15 11:32:52;;;;;;;1.60;1.50;;;15.70;64.50;;;;;;926036;150;27350;-75
2023/04/15 11:35:18;;;;;;;1.47;1.37;;;15.60;65.00;;;;;;925673;150;27388;-75
2023/04/15 11:37:45;;;;;;;1.17;1.10;;;15.40;65.50;;;;;;943730;148;27385;-75
2023/04/15 11:40:12;;;;;;;1.52;1.42;;;15.30;65.90;;;;;;943733;148;27430;-75
2023/04/15 11:42:38;;;;;;;1.85;1.40;;;15.30;66.70;;;;;;942731;149;27458;-75
2023/04/15 11:45:10;;;;;;;1.10;1.10;;;15.20;67.20;;;;;;946862;147;27678;-75
2023/04/15 11:47:37;;;;;;;1.05;0.95;;;15.20;67.20;;;;;;950218;147;27658;-76
2023/04/15 11:50:22;;;;;;;1.40;0.90;;;15.20;67.00;;;;;;942597;149;27366;-75
2023/04/15 11:52:57;;;;;;;0.90;0.90;;;15.10;67.30;;;;;;938395;149;27409;-76
2023/04/15 11:55:24;;;;;;;1.00;1.00;;;15.00;67.20;;;;;;945287;148;27378;-75
2023/04/15 11:57:50;;;;;;;1.00;1.00;;;14.90;67.50;;;;;;943654;148;27298;-75
2023/04/15 12:00:17;;;;;;;0.85;0.85;;;14.70;67.50;;;;;;932072;150;27433;-75
2023/04/15 12:02:43;;;;;;;1.85;0.80;;;14.60;68.00;;;;;;919915;151;27375;-75
2023/04/15 12:05:11;;;;;;;1.00;0.90;;;14.50;68.40;;;;;;941299;147;27809;-75
2023/04/15 12:07:58;;;;;;;0.80;0.80;;;14.40;69.10;;;;;;945331;148;27349;-75
2023/04/15 12:10:24;;;;;;;0.80;0.80;;;14.30;69.20;;;;;;939669;151;27727;-77
2023/04/15 12:12:54;;;;;;;0.95;0.95;;;14.30;69.20;;;;;;937852;152;27416;-76
2023/04/15 12:15:23;;;;;;;1.00;1.00;;;14.20;70.00;;;;;;946211;147;27358;-76
2023/04/15 12:17:50;;;;;;;1.05;1.05;;;14.20;70.00;;;;;;944035;148;27821;-76
2023/04/15 12:20:16;;;;;;;0.80;0.80;;;14.20;70.30;;;;;;944258;148;27341;-77
2023/04/15 12:22:43;;;;;;;1.10;1.10;;;14.10;70.50;;;;;;925470;150;27346;-76
2023/04/15 12:25:10;;;;;;;1.20;1.10;;;14.10;70.80;;;;;;939791;150;27376;-77
2023/04/15 12:27:36;;;;;;;1.22;1.12;;;14.10;71.10;;;;;;946298;147;27431;-77
2023/04/15 12:30:03;;;;;;;1.00;1.00;;;14.10;71.40;;;;;;927832;150;27396;-76
2023/04/15 12:32:29;;;;;;;1.40;1.30;;;14.10;71.60;;;;;;934131;149;27298;-77
2023/04/15 12:34:57;;;;;;;1.30;1.30;;;14.10;71.60;;;;;;942528;151;27335;-76
2023/04/15 12:37:22;;;;;;;1.00;1.00;;;14.10;71.70;;;;;;943955;147;27449;-77
2023/04/15 12:39:49;;;;;;;1.52;1.40;;;14.10;72.50;;;;;;944548;149;27670;-74
2023/04/15 12:42:16;;;;;;;1.40;1.30;;;14.20;72.10;;;;;;942440;149;27407;-74
2023/04/15 12:44:42;;;;;;;1.03;1.03;;;14.10;72.50;;;;;;945322;149;27322;-74
2023/04/15 12:47:09;;;;;;;1.37;1.27;;;14.10;72.80;;;;;;944496;149;27458;-74
2023/04/15 12:49:36;;;;;;;1.22;1.22;;;14.10;72.90;;;;;;944195;149;27364;-74
2023/04/15 12:52:02;;;;;;;1.20;1.20;;;14.20;73.10;;;;;;943617;148;27428;-74